sensor_id;sensor_type;location;lat;lon;timestamp;temperature;humidity
1123;DHT22;548;48.778;9.252;2023-07-13T00:01:33;22.00;95.60
1123;DHT22;548;48.778;9.252;2023-07-13T00:04:00;21.90;95.70
1123;DHT22;548;48.778;9.252;2023-07-13T00:06:27;21.90;95.70
1123;DHT22;548;48.778;9.252;2023-07-13T00:08:55;21.80;96.10
1123;DHT22;548;48.778;9.252;2023-07-13T00:11:22;21.70;96.10
1123;DHT22;548;48.778;9.252;2023-07-13T00:13:49;21.70;96.40
1123;DHT22;548;48.778;9.252;2023-07-13T00:16:15;21.60;96.40
1123;DHT22;548;48.778;9.252;2023-07-13T00:18:45;21.60;96.40
1123;DHT22;548;48.778;9.252;2023-07-13T00:21:12;21.50;96.60
1123;DHT22;548;48.778;9.252;2023-07-13T00:23:41;21.40;96.90
1123;DHT22;548;48.778;9.252;2023-07-13T00:26:10;21.30;96.90
1123;DHT22;548;48.778;9.252;2023-07-13T00:28:38;21.20;97.10
1123;DHT22;548;48.778;9.252;2023-07-13T00:31:05;21.20;97.30
1123;DHT22;548;48.778;9.252;2023-07-13T00:33:31;21.10;97.50
1123;DHT22;548;48.778;9.252;2023-07-13T00:35:59;21.10;97.80
1123;DHT22;548;48.778;9.252;2023-07-13T00:38:26;21.00;97.70
1123;DHT22;548;48.778;9.252;2023-07-13T00:40:53;21.00;97.60
1123;DHT22;548;48.778;9.252;2023-07-13T00:43:22;20.90;97.90
1123;DHT22;548;48.778;9.252;2023-07-13T00:46:20;20.90;98.10
1123;DHT22;548;48.778;9.252;2023-07-13T00:48:48;20.80;98.20
1123;DHT22;548;48.778;9.252;2023-07-13T00:51:20;20.70;98.50
1123;DHT22;548;48.778;9.252;2023-07-13T00:53:48;20.70;98.20
1123;DHT22;548;48.778;9.252;2023-07-13T00:56:15;20.70;98.60
1123;DHT22;548;48.778;9.252;2023-07-13T00:58:42;20.60;98.80
1123;DHT22;548;48.778;9.252;2023-07-13T01:01:09;20.60;98.70
1123;DHT22;548;48.778;9.252;2023-07-13T01:03:38;20.60;98.50
1123;DHT22;548;48.778;9.252;2023-07-13T01:06:06;20.60;98.50
1123;DHT22;548;48.778;9.252;2023-07-13T01:08:34;20.60;98.50
1123;DHT22;548;48.778;9.252;2023-07-13T01:11:01;20.50;98.40
1123;DHT22;548;48.778;9.252;2023-07-13T01:13:27;20.50;98.50
1123;DHT22;548;48.778;9.252;2023-07-13T01:15:58;20.40;98.30
1123;DHT22;548;48.778;9.252;2023-07-13T01:18:26;20.50;98.20
1123;DHT22;548;48.778;9.252;2023-07-13T01:20:56;20.40;98.20
1123;DHT22;548;48.778;9.252;2023-07-13T01:23:24;20.30;98.80
1123;DHT22;548;48.778;9.252;2023-07-13T01:25:52;20.30;98.50
1123;DHT22;548;48.778;9.252;2023-07-13T01:28:21;20.30;98.30
1123;DHT22;548;48.778;9.252;2023-07-13T01:30:48;20.30;98.60
1123;DHT22;548;48.778;9.252;2023-07-13T01:33:17;20.30;98.50
1123;DHT22;548;48.778;9.252;2023-07-13T01:35:45;20.20;98.70
1123;DHT22;548;48.778;9.252;2023-07-13T01:38:15;20.10;98.50
1123;DHT22;548;48.778;9.252;2023-07-13T01:40:43;20.10;98.50
1123;DHT22;548;48.778;9.252;2023-07-13T01:43:09;20.00;98.60
1123;DHT22;548;48.778;9.252;2023-07-13T01:45:36;19.90;99.10
1123;DHT22;548;48.778;9.252;2023-07-13T01:48:04;19.90;99.50
1123;DHT22;548;48.778;9.252;2023-07-13T01:50:32;19.80;99.80
1123;DHT22;548;48.778;9.252;2023-07-13T01:52:59;19.90;99.10
1123;DHT22;548;48.778;9.252;2023-07-13T01:55:28;19.70;99.10
1123;DHT22;548;48.778;9.252;2023-07-13T01:57:55;19.60;99.60
1123;DHT22;548;48.778;9.252;2023-07-13T02:00:22;19.60;99.90
1123;DHT22;548;48.778;9.252;2023-07-13T02:02:49;19.50;99.90
1123;DHT22;548;48.778;9.252;2023-07-13T02:05:15;19.50;99.90
1123;DHT22;548;48.778;9.252;2023-07-13T02:07:42;19.50;99.90
1123;DHT22;548;48.778;9.252;2023-07-13T02:10:10;19.50;99.90
1123;DHT22;548;48.778;9.252;2023-07-13T02:12:39;19.40;99.90
1123;DHT22;548;48.778;9.252;2023-07-13T02:15:06;19.50;99.90
1123;DHT22;548;48.778;9.252;2023-07-13T02:17:34;19.40;99.90
1123;DHT22;548;48.778;9.252;2023-07-13T02:20:01;19.30;99.90
1123;DHT22;548;48.778;9.252;2023-07-13T02:22:28;19.20;99.90
1123;DHT22;548;48.778;9.252;2023-07-13T02:24:55;19.10;99.90
1123;DHT22;548;48.778;9.252;2023-07-13T02:27:22;19.10;99.90
1123;DHT22;548;48.778;9.252;2023-07-13T02:29:50;19.10;99.90
1123;DHT22;548;48.778;9.252;2023-07-13T02:32:17;19.10;99.90
1123;DHT22;548;48.778;9.252;2023-07-13T02:34:44;19.10;99.90
1123;DHT22;548;48.778;9.252;2023-07-13T02:37:11;19.10;99.90
1123;DHT22;548;48.778;9.252;2023-07-13T02:39:37;19.20;99.90
1123;DHT22;548;48.778;9.252;2023-07-13T02:42:05;19.10;99.90
1123;DHT22;548;48.778;9.252;2023-07-13T02:44:32;19.10;99.90
1123;DHT22;548;48.778;9.252;2023-07-13T02:47:00;19.10;99.90
1123;DHT22;548;48.778;9.252;2023-07-13T02:49:26;19.00;99.90
1123;DHT22;548;48.778;9.252;2023-07-13T02:51:53;18.90;99.90
1123;DHT22;548;48.778;9.252;2023-07-13T02:54:20;18.80;99.90
1123;DHT22;548;48.778;9.252;2023-07-13T02:56:46;18.70;99.90
1123;DHT22;548;48.778;9.252;2023-07-13T02:59:13;18.70;99.90
1123;DHT22;548;48.778;9.252;2023-07-13T03:01:40;18.60;99.90
1123;DHT22;548;48.778;9.252;2023-07-13T03:04:08;18.50;99.90
1123;DHT22;548;48.778;9.252;2023-07-13T03:06:35;18.40;99.90
1123;DHT22;548;48.778;9.252;2023-07-13T03:09:01;18.40;99.90
1123;DHT22;548;48.778;9.252;2023-07-13T03:11:29;18.40;99.90
1123;DHT22;548;48.778;9.252;2023-07-13T03:13:57;18.40;99.90
1123;DHT22;548;48.778;9.252;2023-07-13T03:16:24;18.40;99.90
1123;DHT22;548;48.778;9.252;2023-07-13T03:18:50;18.50;99.90
1123;DHT22;548;48.778;9.252;2023-07-13T03:21:19;18.60;99.90
1123;DHT22;548;48.778;9.252;2023-07-13T03:23:46;18.70;99.90
1123;DHT22;548;48.778;9.252;2023-07-13T03:26:16;18.80;99.90
1123;DHT22;548;48.778;9.252;2023-07-13T03:28:44;18.90;99.90
1123;DHT22;548;48.778;9.252;2023-07-13T03:31:13;19.00;99.90
1123;DHT22;548;48.778;9.252;2023-07-13T03:33:41;19.10;99.90
1123;DHT22;548;48.778;9.252;2023-07-13T03:36:11;19.20;99.90
1123;DHT22;548;48.778;9.252;2023-07-13T03:38:40;19.30;99.90
1123;DHT22;548;48.778;9.252;2023-07-13T03:41:07;19.20;99.90
1123;DHT22;548;48.778;9.252;2023-07-13T03:43:33;19.10;99.90
1123;DHT22;548;48.778;9.252;2023-07-13T03:46:00;19.20;99.90
1123;DHT22;548;48.778;9.252;2023-07-13T03:48:27;19.20;99.90
1123;DHT22;548;48.778;9.252;2023-07-13T03:50:53;19.20;99.90
1123;DHT22;548;48.778;9.252;2023-07-13T03:53:20;19.30;99.90
1123;DHT22;548;48.778;9.252;2023-07-13T03:55:48;19.40;99.90
1123;DHT22;548;48.778;9.252;2023-07-13T03:58:30;19.50;99.90
1123;DHT22;548;48.778;9.252;2023-07-13T04:00:58;19.60;99.90
1123;DHT22;548;48.778;9.252;2023-07-13T04:03:25;19.70;99.90
1123;DHT22;548;48.778;9.252;2023-07-13T04:05:53;19.80;99.90
1123;DHT22;548;48.778;9.252;2023-07-13T04:08:20;19.70;99.90
1123;DHT22;548;48.778;9.252;2023-07-13T04:10:48;19.70;99.90
1123;DHT22;548;48.778;9.252;2023-07-13T04:13:15;19.70;99.90
1123;DHT22;548;48.778;9.252;2023-07-13T04:15:43;19.80;99.90
1123;DHT22;548;48.778;9.252;2023-07-13T04:18:09;19.80;99.90
1123;DHT22;548;48.778;9.252;2023-07-13T04:20:36;19.80;99.90
1123;DHT22;548;48.778;9.252;2023-07-13T04:23:03;19.90;99.90
1123;DHT22;548;48.778;9.252;2023-07-13T04:25:29;19.90;99.90
1123;DHT22;548;48.778;9.252;2023-07-13T04:27:57;19.90;99.90
1123;DHT22;548;48.778;9.252;2023-07-13T04:30:24;20.00;99.90
1123;DHT22;548;48.778;9.252;2023-07-13T04:32:52;20.10;99.90
1123;DHT22;548;48.778;9.252;2023-07-13T04:35:19;20.10;99.90
1123;DHT22;548;48.778;9.252;2023-07-13T04:37:48;20.20;99.90
1123;DHT22;548;48.778;9.252;2023-07-13T04:40:16;20.10;99.90
1123;DHT22;548;48.778;9.252;2023-07-13T04:42:43;20.10;99.90
1123;DHT22;548;48.778;9.252;2023-07-13T04:45:11;20.10;99.90
1123;DHT22;548;48.778;9.252;2023-07-13T04:47:38;20.10;99.90
1123;DHT22;548;48.778;9.252;2023-07-13T04:50:06;20.10;99.90
1123;DHT22;548;48.778;9.252;2023-07-13T04:52:33;20.10;99.90
1123;DHT22;548;48.778;9.252;2023-07-13T04:54:59;20.10;99.90
1123;DHT22;548;48.778;9.252;2023-07-13T04:57:27;20.10;99.90
1123;DHT22;548;48.778;9.252;2023-07-13T04:59:53;20.10;99.90
1123;DHT22;548;48.778;9.252;2023-07-13T05:02:22;20.10;99.90
1123;DHT22;548;48.778;9.252;2023-07-13T05:04:49;20.20;99.90
1123;DHT22;548;48.778;9.252;2023-07-13T05:07:15;20.20;99.90
1123;DHT22;548;48.778;9.252;2023-07-13T05:09:42;20.30;99.90
1123;DHT22;548;48.778;9.252;2023-07-13T05:12:09;20.50;99.90
1123;DHT22;548;48.778;9.252;2023-07-13T05:14:36;20.70;99.90
1123;DHT22;548;48.778;9.252;2023-07-13T05:17:03;20.70;99.90
1123;DHT22;548;48.778;9.252;2023-07-13T05:19:32;21.00;99.60
1123;DHT22;548;48.778;9.252;2023-07-13T05:21:59;21.00;97.50
1123;DHT22;548;48.778;9.252;2023-07-13T05:24:25;21.40;97.40
1123;DHT22;548;48.778;9.252;2023-07-13T05:26:52;21.70;95.10
1123;DHT22;548;48.778;9.252;2023-07-13T05:29:20;21.80;94.50
1123;DHT22;548;48.778;9.252;2023-07-13T05:31:46;22.00;94.20
1123;DHT22;548;48.778;9.252;2023-07-13T05:34:13;22.20;93.60
1123;DHT22;548;48.778;9.252;2023-07-13T05:36:41;22.40;93.10
1123;DHT22;548;48.778;9.252;2023-07-13T05:39:08;22.60;91.90
1123;DHT22;548;48.778;9.252;2023-07-13T05:41:35;22.80;91.60
1123;DHT22;548;48.778;9.252;2023-07-13T05:44:02;22.90;91.50
1123;DHT22;548;48.778;9.252;2023-07-13T05:46:29;23.00;91.50
1123;DHT22;548;48.778;9.252;2023-07-13T05:48:56;23.00;91.10
1123;DHT22;548;48.778;9.252;2023-07-13T05:51:23;22.90;91.30
1123;DHT22;548;48.778;9.252;2023-07-13T05:53:51;22.70;91.20
1123;DHT22;548;48.778;9.252;2023-07-13T05:56:17;22.60;91.60
1123;DHT22;548;48.778;9.252;2023-07-13T05:58:44;22.60;91.90
1123;DHT22;548;48.778;9.252;2023-07-13T06:01:13;22.70;91.40
1123;DHT22;548;48.778;9.252;2023-07-13T06:03:40;22.60;92.00
1123;DHT22;548;48.778;9.252;2023-07-13T06:06:09;22.60;91.30
1123;DHT22;548;48.778;9.252;2023-07-13T06:08:36;22.60;90.70
1123;DHT22;548;48.778;9.252;2023-07-13T06:11:06;22.40;90.80
1123;DHT22;548;48.778;9.252;2023-07-13T06:13:33;22.40;90.80
1123;DHT22;548;48.778;9.252;2023-07-13T06:16:00;22.30;91.00
1123;DHT22;548;48.778;9.252;2023-07-13T06:18:29;22.60;91.50
1123;DHT22;548;48.778;9.252;2023-07-13T06:20:56;23.30;90.10
1123;DHT22;548;48.778;9.252;2023-07-13T06:23:23;24.40;86.60
1123;DHT22;548;48.778;9.252;2023-07-13T06:25:49;25.20;83.60
1123;DHT22;548;48.778;9.252;2023-07-13T06:28:19;26.20;79.80
1123;DHT22;548;48.778;9.252;2023-07-13T06:30:45;26.40;77.00
1123;DHT22;548;48.778;9.252;2023-07-13T06:33:12;26.70;74.80
1123;DHT22;548;48.778;9.252;2023-07-13T06:35:39;27.40;74.00
1123;DHT22;548;48.778;9.252;2023-07-13T06:38:05;27.80;71.80
1123;DHT22;548;48.778;9.252;2023-07-13T06:40:32;28.30;69.70
1123;DHT22;548;48.778;9.252;2023-07-13T06:42:59;28.60;67.10
1123;DHT22;548;48.778;9.252;2023-07-13T06:45:27;28.40;68.60
1123;DHT22;548;48.778;9.252;2023-07-13T06:47:53;29.20;65.30
1123;DHT22;548;48.778;9.252;2023-07-13T06:50:20;28.60;64.70
1123;DHT22;548;48.778;9.252;2023-07-13T06:52:47;29.20;64.30
1123;DHT22;548;48.778;9.252;2023-07-13T06:55:14;29.60;61.20
1123;DHT22;548;48.778;9.252;2023-07-13T06:57:41;29.90;61.50
1123;DHT22;548;48.778;9.252;2023-07-13T07:00:08;30.00;58.60
1123;DHT22;548;48.778;9.252;2023-07-13T07:02:36;29.70;59.50
1123;DHT22;548;48.778;9.252;2023-07-13T07:05:04;30.20;58.40
1123;DHT22;548;48.778;9.252;2023-07-13T07:07:30;30.50;56.40
1123;DHT22;548;48.778;9.252;2023-07-13T07:09:57;30.60;55.20
1123;DHT22;548;48.778;9.252;2023-07-13T07:12:24;30.50;54.10
1123;DHT22;548;48.778;9.252;2023-07-13T07:14:50;29.40;55.70
1123;DHT22;548;48.778;9.252;2023-07-13T07:17:17;29.30;56.20
1123;DHT22;548;48.778;9.252;2023-07-13T07:19:45;29.40;55.50
1123;DHT22;548;48.778;9.252;2023-07-13T07:22:12;29.40;56.10
1123;DHT22;548;48.778;9.252;2023-07-13T07:24:39;29.90;55.20
1123;DHT22;548;48.778;9.252;2023-07-13T07:27:06;30.70;55.20
1123;DHT22;548;48.778;9.252;2023-07-13T07:29:33;30.80;52.10
1123;DHT22;548;48.778;9.252;2023-07-13T07:31:59;31.00;52.10
1123;DHT22;548;48.778;9.252;2023-07-13T07:34:26;31.50;50.90
1123;DHT22;548;48.778;9.252;2023-07-13T07:36:56;31.60;51.00
1123;DHT22;548;48.778;9.252;2023-07-13T07:39:23;32.10;50.50
1123;DHT22;548;48.778;9.252;2023-07-13T07:41:50;32.20;49.60
1123;DHT22;548;48.778;9.252;2023-07-13T07:44:16;32.30;49.20
1123;DHT22;548;48.778;9.252;2023-07-13T07:46:43;32.20;48.80
1123;DHT22;548;48.778;9.252;2023-07-13T07:49:10;32.30;48.80
1123;DHT22;548;48.778;9.252;2023-07-13T07:51:37;32.10;47.40
1123;DHT22;548;48.778;9.252;2023-07-13T07:54:05;32.50;48.00
1123;DHT22;548;48.778;9.252;2023-07-13T07:56:32;32.30;48.20
1123;DHT22;548;48.778;9.252;2023-07-13T07:58:59;32.10;48.20
1123;DHT22;548;48.778;9.252;2023-07-13T08:01:26;32.60;47.10
1123;DHT22;548;48.778;9.252;2023-07-13T08:03:52;32.40;46.80
1123;DHT22;548;48.778;9.252;2023-07-13T08:06:19;32.20;46.70
1123;DHT22;548;48.778;9.252;2023-07-13T08:08:47;32.10;47.10
1123;DHT22;548;48.778;9.252;2023-07-13T08:11:16;32.30;47.40
1123;DHT22;548;48.778;9.252;2023-07-13T08:13:43;32.60;46.40
1123;DHT22;548;48.778;9.252;2023-07-13T08:16:10;32.10;45.70
1123;DHT22;548;48.778;9.252;2023-07-13T08:18:37;32.20;45.20
1123;DHT22;548;48.778;9.252;2023-07-13T08:21:04;32.60;45.10
1123;DHT22;548;48.778;9.252;2023-07-13T08:23:31;32.90;44.30
1123;DHT22;548;48.778;9.252;2023-07-13T08:25:58;32.90;43.70
1123;DHT22;548;48.778;9.252;2023-07-13T08:28:28;32.20;43.80
1123;DHT22;548;48.778;9.252;2023-07-13T08:30:55;32.30;44.20
1123;DHT22;548;48.778;9.252;2023-07-13T08:33:26;32.60;44.20
1123;DHT22;548;48.778;9.252;2023-07-13T08:35:53;33.10;44.20
1123;DHT22;548;48.778;9.252;2023-07-13T08:38:19;33.60;42.70
1123;DHT22;548;48.778;9.252;2023-07-13T08:40:50;33.50;42.50
1123;DHT22;548;48.778;9.252;2023-07-13T08:43:20;33.10;42.30
1123;DHT22;548;48.778;9.252;2023-07-13T08:45:53;33.20;42.10
1123;DHT22;548;48.778;9.252;2023-07-13T08:48:26;33.50;42.00
1123;DHT22;548;48.778;9.252;2023-07-13T08:50:57;34.20;41.60
1123;DHT22;548;48.778;9.252;2023-07-13T08:53:29;33.60;42.00
1123;DHT22;548;48.778;9.252;2023-07-13T08:55:58;33.70;42.10
1123;DHT22;548;48.778;9.252;2023-07-13T08:58:27;33.70;41.30
1123;DHT22;548;48.778;9.252;2023-07-13T09:01:02;33.80;42.70
1123;DHT22;548;48.778;9.252;2023-07-13T09:03:38;33.70;41.40
1123;DHT22;548;48.778;9.252;2023-07-13T09:06:11;33.80;41.80
1123;DHT22;548;48.778;9.252;2023-07-13T09:08:48;33.70;41.10
1123;DHT22;548;48.778;9.252;2023-07-13T09:11:32;33.20;41.90
1123;DHT22;548;48.778;9.252;2023-07-13T09:14:06;32.90;42.20
1123;DHT22;548;48.778;9.252;2023-07-13T09:16:41;32.20;43.10
1123;DHT22;548;48.778;9.252;2023-07-13T09:19:13;32.50;43.50
1123;DHT22;548;48.778;9.252;2023-07-13T09:21:44;32.90;43.70
1123;DHT22;548;48.778;9.252;2023-07-13T09:24:28;33.50;42.60
1123;DHT22;548;48.778;9.252;2023-07-13T09:26:56;33.80;41.50
1123;DHT22;548;48.778;9.252;2023-07-13T09:29:28;33.20;42.00
1123;DHT22;548;48.778;9.252;2023-07-13T09:32:02;32.50;42.40
1123;DHT22;548;48.778;9.252;2023-07-13T09:34:32;32.20;43.90
1123;DHT22;548;48.778;9.252;2023-07-13T09:36:59;31.50;44.00
1123;DHT22;548;48.778;9.252;2023-07-13T09:39:29;31.70;44.40
1123;DHT22;548;48.778;9.252;2023-07-13T09:42:01;32.50;44.40
1123;DHT22;548;48.778;9.252;2023-07-13T09:44:35;33.20;43.10
1123;DHT22;548;48.778;9.252;2023-07-13T09:47:16;34.10;41.30
1123;DHT22;548;48.778;9.252;2023-07-13T09:49:43;34.50;39.70
1123;DHT22;548;48.778;9.252;2023-07-13T09:52:12;35.10;40.40
1123;DHT22;548;48.778;9.252;2023-07-13T09:54:45;36.00;38.70
1123;DHT22;548;48.778;9.252;2023-07-13T09:57:16;35.30;39.10
1123;DHT22;548;48.778;9.252;2023-07-13T09:59:45;35.00;39.40
1123;DHT22;548;48.778;9.252;2023-07-13T10:02:27;34.70;39.80
1123;DHT22;548;48.778;9.252;2023-07-13T10:04:59;33.20;41.40
1123;DHT22;548;48.778;9.252;2023-07-13T10:07:27;33.20;41.70
1123;DHT22;548;48.778;9.252;2023-07-13T10:09:54;33.20;41.90
1123;DHT22;548;48.778;9.252;2023-07-13T10:12:22;33.80;40.80
1123;DHT22;548;48.778;9.252;2023-07-13T10:14:52;33.20;40.90
1123;DHT22;548;48.778;9.252;2023-07-13T10:17:29;33.60;41.10
1123;DHT22;548;48.778;9.252;2023-07-13T10:19:59;33.90;40.20
1123;DHT22;548;48.778;9.252;2023-07-13T10:22:33;33.80;40.70
1123;DHT22;548;48.778;9.252;2023-07-13T10:25:16;33.50;41.50
1123;DHT22;548;48.778;9.252;2023-07-13T10:27:44;33.40;41.10
1123;DHT22;548;48.778;9.252;2023-07-13T10:30:14;33.20;41.30
1123;DHT22;548;48.778;9.252;2023-07-13T10:32:43;33.50;40.60
1123;DHT22;548;48.778;9.252;2023-07-13T10:35:11;34.10;41.10
1123;DHT22;548;48.778;9.252;2023-07-13T10:37:48;34.40;40.20
1123;DHT22;548;48.778;9.252;2023-07-13T10:40:19;34.30;39.40
1123;DHT22;548;48.778;9.252;2023-07-13T10:42:50;34.10;40.20
1123;DHT22;548;48.778;9.252;2023-07-13T10:45:21;33.40;40.60
1123;DHT22;548;48.778;9.252;2023-07-13T10:47:51;32.80;42.50
1123;DHT22;548;48.778;9.252;2023-07-13T10:50:21;33.30;41.10
1123;DHT22;548;48.778;9.252;2023-07-13T10:52:49;33.90;40.10
1123;DHT22;548;48.778;9.252;2023-07-13T10:55:35;34.20;39.70
1123;DHT22;548;48.778;9.252;2023-07-13T10:58:03;33.90;40.20
1123;DHT22;548;48.778;9.252;2023-07-13T11:00:47;33.40;41.40
1123;DHT22;548;48.778;9.252;2023-07-13T11:03:18;33.30;40.60
1123;DHT22;548;48.778;9.252;2023-07-13T11:05:49;33.70;40.50
1123;DHT22;548;48.778;9.252;2023-07-13T11:08:20;34.50;39.20
1123;DHT22;548;48.778;9.252;2023-07-13T11:10:53;34.50;39.50
1123;DHT22;548;48.778;9.252;2023-07-13T11:16:44;35.50;37.50
1123;DHT22;548;48.778;9.252;2023-07-13T11:19:28;34.80;38.10
1123;DHT22;548;48.778;9.252;2023-07-13T11:22:11;36.00;38.50
1123;DHT22;548;48.778;9.252;2023-07-13T11:24:59;36.40;36.60
1123;DHT22;548;48.778;9.252;2023-07-13T11:27:38;36.00;37.00
1123;DHT22;548;48.778;9.252;2023-07-13T11:30:25;35.10;37.70
1123;DHT22;548;48.778;9.252;2023-07-13T11:33:10;34.50;39.00
1123;DHT22;548;48.778;9.252;2023-07-13T11:35:44;34.50;39.20
1123;DHT22;548;48.778;9.252;2023-07-13T11:38:15;34.50;38.90
1123;DHT22;548;48.778;9.252;2023-07-13T11:40:44;34.90;38.50
1123;DHT22;548;48.778;9.252;2023-07-13T11:43:14;35.10;38.00
1123;DHT22;548;48.778;9.252;2023-07-13T11:45:41;35.60;37.30
1123;DHT22;548;48.778;9.252;2023-07-13T11:48:19;35.90;36.70
1123;DHT22;548;48.778;9.252;2023-07-13T11:50:52;36.90;35.30
1123;DHT22;548;48.778;9.252;2023-07-13T11:53:20;36.30;36.20
1123;DHT22;548;48.778;9.252;2023-07-13T11:55:47;36.50;36.70
1123;DHT22;548;48.778;9.252;2023-07-13T11:58:19;37.50;35.40
1123;DHT22;548;48.778;9.252;2023-07-13T12:00:48;37.70;34.50
1123;DHT22;548;48.778;9.252;2023-07-13T12:03:20;35.90;36.00
1123;DHT22;548;48.778;9.252;2023-07-13T12:06:01;34.50;37.20
1123;DHT22;548;48.778;9.252;2023-07-13T12:08:32;34.00;38.70
1123;DHT22;548;48.778;9.252;2023-07-13T12:11:05;33.00;40.00
1123;DHT22;548;48.778;9.252;2023-07-13T12:13:36;33.80;40.00
1123;DHT22;548;48.778;9.252;2023-07-13T12:16:12;34.10;38.90
1123;DHT22;548;48.778;9.252;2023-07-13T12:18:43;33.20;39.30
1123;DHT22;548;48.778;9.252;2023-07-13T12:21:17;32.20;40.30
1123;DHT22;548;48.778;9.252;2023-07-13T12:23:45;32.20;40.60
1123;DHT22;548;48.778;9.252;2023-07-13T12:26:15;33.00;40.00
1123;DHT22;548;48.778;9.252;2023-07-13T12:28:46;33.20;38.80
1123;DHT22;548;48.778;9.252;2023-07-13T12:31:32;33.60;39.40
1123;DHT22;548;48.778;9.252;2023-07-13T12:34:02;33.30;39.60
1123;DHT22;548;48.778;9.252;2023-07-13T12:36:35;33.10;40.10
1123;DHT22;548;48.778;9.252;2023-07-13T12:39:13;33.40;39.90
1123;DHT22;548;48.778;9.252;2023-07-13T12:41:41;34.90;38.70
1123;DHT22;548;48.778;9.252;2023-07-13T12:44:11;35.00;36.60
1123;DHT22;548;48.778;9.252;2023-07-13T12:46:38;34.50;37.80
1123;DHT22;548;48.778;9.252;2023-07-13T12:49:06;33.20;38.50
1123;DHT22;548;48.778;9.252;2023-07-13T12:51:36;31.40;40.00
1123;DHT22;548;48.778;9.252;2023-07-13T12:54:15;30.00;41.80
1123;DHT22;548;48.778;9.252;2023-07-13T12:56:42;29.60;43.40
1123;DHT22;548;48.778;9.252;2023-07-13T12:59:18;29.60;44.20
1123;DHT22;548;48.778;9.252;2023-07-13T13:01:46;29.70;43.50
1123;DHT22;548;48.778;9.252;2023-07-13T13:04:15;30.30;43.40
1123;DHT22;548;48.778;9.252;2023-07-13T13:06:43;31.50;41.90
1123;DHT22;548;48.778;9.252;2023-07-13T13:09:13;31.90;40.30
1123;DHT22;548;48.778;9.252;2023-07-13T13:11:41;31.90;40.40
1123;DHT22;548;48.778;9.252;2023-07-13T13:14:08;31.90;40.40
1123;DHT22;548;48.778;9.252;2023-07-13T13:16:37;32.20;40.30
1123;DHT22;548;48.778;9.252;2023-07-13T13:19:14;32.70;39.40
1123;DHT22;548;48.778;9.252;2023-07-13T13:21:44;33.50;38.50
1123;DHT22;548;48.778;9.252;2023-07-13T13:24:12;34.10;37.50
1123;DHT22;548;48.778;9.252;2023-07-13T13:26:39;33.40;37.00
1123;DHT22;548;48.778;9.252;2023-07-13T13:29:12;32.70;38.90
1123;DHT22;548;48.778;9.252;2023-07-13T13:31:40;33.20;39.50
1123;DHT22;548;48.778;9.252;2023-07-13T13:34:08;34.30;38.10
1123;DHT22;548;48.778;9.252;2023-07-13T13:36:35;34.50;37.80
1123;DHT22;548;48.778;9.252;2023-07-13T13:39:10;34.80;37.00
1123;DHT22;548;48.778;9.252;2023-07-13T13:41:42;34.50;37.00
1123;DHT22;548;48.778;9.252;2023-07-13T13:44:09;34.40;37.40
1123;DHT22;548;48.778;9.252;2023-07-13T13:46:36;34.60;36.90
1123;DHT22;548;48.778;9.252;2023-07-13T13:49:03;34.90;36.10
1123;DHT22;548;48.778;9.252;2023-07-13T13:51:30;34.70;36.20
1123;DHT22;548;48.778;9.252;2023-07-13T13:53:56;34.10;36.40
1123;DHT22;548;48.778;9.252;2023-07-13T13:56:25;33.60;37.70
1123;DHT22;548;48.778;9.252;2023-07-13T13:58:52;33.60;37.00
1123;DHT22;548;48.778;9.252;2023-07-13T14:01:20;33.10;37.50
1123;DHT22;548;48.778;9.252;2023-07-13T14:03:47;33.00;38.20
1123;DHT22;548;48.778;9.252;2023-07-13T14:06:16;32.60;38.80
1123;DHT22;548;48.778;9.252;2023-07-13T14:08:43;31.90;38.60
1123;DHT22;548;48.778;9.252;2023-07-13T14:11:11;31.50;39.50
1123;DHT22;548;48.778;9.252;2023-07-13T14:13:42;31.70;39.10
1123;DHT22;548;48.778;9.252;2023-07-13T14:16:11;31.10;39.80
1123;DHT22;548;48.778;9.252;2023-07-13T14:18:38;30.60;40.50
1123;DHT22;548;48.778;9.252;2023-07-13T14:21:11;30.90;40.40
1123;DHT22;548;48.778;9.252;2023-07-13T14:23:38;31.10;39.80
1123;DHT22;548;48.778;9.252;2023-07-13T14:26:09;30.70;40.00
1123;DHT22;548;48.778;9.252;2023-07-13T14:28:40;30.00;40.50
1123;DHT22;548;48.778;9.252;2023-07-13T14:31:08;29.60;41.90
1123;DHT22;548;48.778;9.252;2023-07-13T14:33:35;30.60;41.80
1123;DHT22;548;48.778;9.252;2023-07-13T14:36:02;30.60;41.70
1123;DHT22;548;48.778;9.252;2023-07-13T14:38:29;30.60;42.20
1123;DHT22;548;48.778;9.252;2023-07-13T14:40:55;30.90;41.70
1123;DHT22;548;48.778;9.252;2023-07-13T14:43:22;30.60;41.80
1123;DHT22;548;48.778;9.252;2023-07-13T14:45:51;30.20;42.00
1123;DHT22;548;48.778;9.252;2023-07-13T14:48:22;29.90;42.20
1123;DHT22;548;48.778;9.252;2023-07-13T14:50:53;29.30;42.30
1123;DHT22;548;48.778;9.252;2023-07-13T14:53:21;29.20;42.30
1123;DHT22;548;48.778;9.252;2023-07-13T14:55:48;29.60;42.60
1123;DHT22;548;48.778;9.252;2023-07-13T14:58:15;29.90;41.80
1123;DHT22;548;48.778;9.252;2023-07-13T15:00:41;30.60;41.50
1123;DHT22;548;48.778;9.252;2023-07-13T15:03:16;30.50;41.50
1123;DHT22;548;48.778;9.252;2023-07-13T15:05:46;30.90;41.40
1123;DHT22;548;48.778;9.252;2023-07-13T15:08:13;30.90;41.30
1123;DHT22;548;48.778;9.252;2023-07-13T15:10:41;30.80;41.60
1123;DHT22;548;48.778;9.252;2023-07-13T15:13:16;30.50;41.60
1123;DHT22;548;48.778;9.252;2023-07-13T15:15:45;30.30;42.70
1123;DHT22;548;48.778;9.252;2023-07-13T15:18:15;29.90;42.90
1123;DHT22;548;48.778;9.252;2023-07-13T15:20:44;29.50;43.40
1123;DHT22;548;48.778;9.252;2023-07-13T15:23:12;29.20;44.00
1123;DHT22;548;48.778;9.252;2023-07-13T15:25:39;28.90;44.90
1123;DHT22;548;48.778;9.252;2023-07-13T15:28:05;28.90;45.00
1123;DHT22;548;48.778;9.252;2023-07-13T15:30:38;28.60;44.90
1123;DHT22;548;48.778;9.252;2023-07-13T15:33:13;28.60;45.40
1123;DHT22;548;48.778;9.252;2023-07-13T15:35:44;28.60;45.50
1123;DHT22;548;48.778;9.252;2023-07-13T15:38:17;28.50;45.00
1123;DHT22;548;48.778;9.252;2023-07-13T15:40:44;28.50;45.10
1123;DHT22;548;48.778;9.252;2023-07-13T15:43:11;28.50;45.50
1123;DHT22;548;48.778;9.252;2023-07-13T15:45:39;28.20;45.30
1123;DHT22;548;48.778;9.252;2023-07-13T15:48:13;28.10;45.40
1123;DHT22;548;48.778;9.252;2023-07-13T15:50:45;27.90;45.70
1123;DHT22;548;48.778;9.252;2023-07-13T15:53:14;28.10;46.30
1123;DHT22;548;48.778;9.252;2023-07-13T15:55:41;28.20;45.90
1123;DHT22;548;48.778;9.252;2023-07-13T15:58:11;28.30;45.30
1123;DHT22;548;48.778;9.252;2023-07-13T16:00:41;28.30;45.20
1123;DHT22;548;48.778;9.252;2023-07-13T16:03:08;28.40;45.30
1123;DHT22;548;48.778;9.252;2023-07-13T16:05:35;28.30;45.10
1123;DHT22;548;48.778;9.252;2023-07-13T16:08:06;28.40;45.60
1123;DHT22;548;48.778;9.252;2023-07-13T16:10:36;28.20;44.90
1123;DHT22;548;48.778;9.252;2023-07-13T16:13:08;27.90;45.60
1123;DHT22;548;48.778;9.252;2023-07-13T16:15:36;27.90;46.10
1123;DHT22;548;48.778;9.252;2023-07-13T16:18:03;27.80;46.10
1123;DHT22;548;48.778;9.252;2023-07-13T16:20:30;27.80;46.20
1123;DHT22;548;48.778;9.252;2023-07-13T16:22:57;27.60;46.70
1123;DHT22;548;48.778;9.252;2023-07-13T16:25:26;27.60;46.90
1123;DHT22;548;48.778;9.252;2023-07-13T16:27:54;27.60;46.60
1123;DHT22;548;48.778;9.252;2023-07-13T16:30:26;27.40;46.60
1123;DHT22;548;48.778;9.252;2023-07-13T16:32:55;27.40;46.70